Current Weather

Najaf

Najaf, Iraq (ORNI)

Report from: Sunday, May 19, 2024 8:00 AM UTC
Current time: Sunday, May 19, 2024 9:24 AM UTC

Nearby weather – Weather history – Daily summaries
Weather forecast

Temperature36.0°C (96.8°F)
Heat index33.9°C (93.1°F)
Dew point8.0°C (46.4°F)
Winds 6 kts (3.1 m/s, 6.9 mph) South (180°)
Visibility3.7 mi. (6 km)
Altimeter29.83 in.Hg (1010 mB)
Relative humidity18 %
Density altitude2,643 ft. (806 m)
Flight conditions Marginal Visual Meteorological Conditions
Raw dataORNI 190800Z 18006KT 6000 NSC 36/08 Q1010
An error has occurred. This application may no longer respond until reloaded. Reload 🗙